sensor_id;sensor_type;location;lat;lon;timestamp;P1;durP1;ratioP1;P2;durP2;ratioP2
12896;SDS011;6516;35.028;32.372;2023-05-10T00:01:49;6.90;;;3.33;;
12896;SDS011;6516;35.028;32.372;2023-05-10T00:04:17;6.25;;;3.20;;
12896;SDS011;6516;35.028;32.372;2023-05-10T00:06:45;6.88;;;3.47;;
12896;SDS011;6516;35.028;32.372;2023-05-10T00:09:13;9.60;;;3.30;;
12896;SDS011;6516;35.028;32.372;2023-05-10T00:11:41;5.40;;;3.00;;
12896;SDS011;6516;35.028;32.372;2023-05-10T00:14:08;8.00;;;3.47;;
12896;SDS011;6516;35.028;32.372;2023-05-10T00:16:36;5.47;;;2.95;;
12896;SDS011;6516;35.028;32.372;2023-05-10T00:19:06;10.27;;;3.42;;
12896;SDS011;6516;35.028;32.372;2023-05-10T00:21:33;5.90;;;3.03;;
12896;SDS011;6516;35.028;32.372;2023-05-10T00:24:01;6.05;;;3.10;;
12896;SDS011;6516;35.028;32.372;2023-05-10T00:26:30;5.88;;;3.20;;
12896;SDS011;6516;35.028;32.372;2023-05-10T00:28:57;5.70;;;3.00;;
12896;SDS011;6516;35.028;32.372;2023-05-10T00:31:25;5.30;;;3.00;;
12896;SDS011;6516;35.028;32.372;2023-05-10T00:33:53;5.57;;;2.83;;
12896;SDS011;6516;35.028;32.372;2023-05-10T00:36:23;6.63;;;3.13;;
12896;SDS011;6516;35.028;32.372;2023-05-10T00:38:51;5.57;;;2.90;;
12896;SDS011;6516;35.028;32.372;2023-05-10T00:41:19;5.60;;;3.22;;
12896;SDS011;6516;35.028;32.372;2023-05-10T00:43:47;6.97;;;3.30;;
12896;SDS011;6516;35.028;32.372;2023-05-10T00:46:15;7.17;;;3.10;;
12896;SDS011;6516;35.028;32.372;2023-05-10T00:48:43;6.28;;;2.47;;
12896;SDS011;6516;35.028;32.372;2023-05-10T00:51:11;5.32;;;2.50;;
12896;SDS011;6516;35.028;32.372;2023-05-10T00:53:41;6.25;;;2.80;;
12896;SDS011;6516;35.028;32.372;2023-05-10T00:56:11;4.75;;;2.55;;
12896;SDS011;6516;35.028;32.372;2023-05-10T00:58:39;8.00;;;2.97;;
12896;SDS011;6516;35.028;32.372;2023-05-10T01:01:07;5.25;;;2.50;;
12896;SDS011;6516;35.028;32.372;2023-05-10T01:03:36;6.70;;;2.88;;
12896;SDS011;6516;35.028;32.372;2023-05-10T01:06:05;8.57;;;2.95;;
12896;SDS011;6516;35.028;32.372;2023-05-10T01:08:33;6.15;;;2.40;;
12896;SDS011;6516;35.028;32.372;2023-05-10T01:11:02;6.60;;;2.27;;
12896;SDS011;6516;35.028;32.372;2023-05-10T01:13:31;5.63;;;2.35;;
12896;SDS011;6516;35.028;32.372;2023-05-10T01:16:02;6.95;;;2.58;;
12896;SDS011;6516;35.028;32.372;2023-05-10T01:18:32;6.30;;;2.40;;
12896;SDS011;6516;35.028;32.372;2023-05-10T01:21:06;5.35;;;2.30;;
12896;SDS011;6516;35.028;32.372;2023-05-10T01:30:29;5.78;;;2.60;;
12896;SDS011;6516;35.028;32.372;2023-05-10T01:33:24;4.93;;;2.60;;
12896;SDS011;6516;35.028;32.372;2023-05-10T01:35:58;6.40;;;2.30;;
12896;SDS011;6516;35.028;32.372;2023-05-10T01:38:35;4.73;;;2.40;;
12896;SDS011;6516;35.028;32.372;2023-05-10T01:41:13;5.53;;;2.22;;
12896;SDS011;6516;35.028;32.372;2023-05-10T01:43:48;5.10;;;2.45;;
12896;SDS011;6516;35.028;32.372;2023-05-10T01:46:27;5.00;;;2.30;;
12896;SDS011;6516;35.028;32.372;2023-05-10T01:49:07;5.40;;;2.25;;
12896;SDS011;6516;35.028;32.372;2023-05-10T01:51:38;5.47;;;2.30;;
12896;SDS011;6516;35.028;32.372;2023-05-10T01:54:13;6.45;;;2.50;;
12896;SDS011;6516;35.028;32.372;2023-05-10T01:56:42;5.82;;;2.40;;
12896;SDS011;6516;35.028;32.372;2023-05-10T01:59:15;5.55;;;2.40;;
12896;SDS011;6516;35.028;32.372;2023-05-10T02:01:45;5.38;;;2.15;;
12896;SDS011;6516;35.028;32.372;2023-05-10T02:04:16;5.43;;;2.30;;
12896;SDS011;6516;35.028;32.372;2023-05-10T02:06:46;4.78;;;2.10;;
12896;SDS011;6516;35.028;32.372;2023-05-10T02:09:15;6.10;;;2.08;;
12896;SDS011;6516;35.028;32.372;2023-05-10T02:11:44;5.95;;;2.20;;
12896;SDS011;6516;35.028;32.372;2023-05-10T02:14:14;5.22;;;2.60;;
12896;SDS011;6516;35.028;32.372;2023-05-10T02:16:43;4.50;;;2.30;;
12896;SDS011;6516;35.028;32.372;2023-05-10T02:19:13;5.85;;;2.33;;
12896;SDS011;6516;35.028;32.372;2023-05-10T02:21:43;5.35;;;2.22;;
12896;SDS011;6516;35.028;32.372;2023-05-10T02:24:12;4.95;;;2.20;;
12896;SDS011;6516;35.028;32.372;2023-05-10T02:26:42;6.55;;;2.35;;
12896;SDS011;6516;35.028;32.372;2023-05-10T02:29:12;8.73;;;2.80;;
12896;SDS011;6516;35.028;32.372;2023-05-10T02:31:43;5.30;;;2.40;;
12896;SDS011;6516;35.028;32.372;2023-05-10T02:34:12;6.95;;;2.22;;
12896;SDS011;6516;35.028;32.372;2023-05-10T02:36:42;5.43;;;2.28;;
12896;SDS011;6516;35.028;32.372;2023-05-10T02:39:10;5.03;;;2.17;;
12896;SDS011;6516;35.028;32.372;2023-05-10T02:41:40;4.40;;;2.17;;
12896;SDS011;6516;35.028;32.372;2023-05-10T02:44:09;5.43;;;2.10;;
12896;SDS011;6516;35.028;32.372;2023-05-10T02:46:38;4.68;;;2.40;;
12896;SDS011;6516;35.028;32.372;2023-05-10T02:49:06;5.18;;;2.17;;
12896;SDS011;6516;35.028;32.372;2023-05-10T02:51:35;4.60;;;2.03;;
12896;SDS011;6516;35.028;32.372;2023-05-10T02:54:12;5.60;;;2.67;;
12896;SDS011;6516;35.028;32.372;2023-05-10T02:56:47;4.55;;;2.33;;
12896;SDS011;6516;35.028;32.372;2023-05-10T02:59:19;6.32;;;2.28;;
12896;SDS011;6516;35.028;32.372;2023-05-10T03:01:47;5.10;;;2.20;;
12896;SDS011;6516;35.028;32.372;2023-05-10T03:04:15;4.75;;;2.60;;
12896;SDS011;6516;35.028;32.372;2023-05-10T03:06:45;5.43;;;2.17;;
12896;SDS011;6516;35.028;32.372;2023-05-10T03:09:13;5.35;;;2.40;;
12896;SDS011;6516;35.028;32.372;2023-05-10T03:11:44;6.30;;;2.60;;
12896;SDS011;6516;35.028;32.372;2023-05-10T03:14:26;5.35;;;2.40;;
12896;SDS011;6516;35.028;32.372;2023-05-10T03:17:09;5.97;;;3.00;;
12896;SDS011;6516;35.028;32.372;2023-05-10T03:19:43;6.07;;;3.00;;
12896;SDS011;6516;35.028;32.372;2023-05-10T03:22:21;6.07;;;2.60;;
12896;SDS011;6516;35.028;32.372;2023-05-10T03:24:53;5.13;;;2.80;;
12896;SDS011;6516;35.028;32.372;2023-05-10T03:27:23;7.38;;;3.05;;
12896;SDS011;6516;35.028;32.372;2023-05-10T03:29:54;7.28;;;2.90;;
12896;SDS011;6516;35.028;32.372;2023-05-10T03:32:23;6.07;;;2.77;;
12896;SDS011;6516;35.028;32.372;2023-05-10T03:34:52;7.13;;;3.15;;
12896;SDS011;6516;35.028;32.372;2023-05-10T03:37:21;7.22;;;3.47;;
12896;SDS011;6516;35.028;32.372;2023-05-10T03:39:49;7.93;;;3.35;;
12896;SDS011;6516;35.028;32.372;2023-05-10T03:42:17;6.28;;;3.22;;
12896;SDS011;6516;35.028;32.372;2023-05-10T03:44:44;7.90;;;3.50;;
12896;SDS011;6516;35.028;32.372;2023-05-10T03:47:14;8.68;;;3.63;;
12896;SDS011;6516;35.028;32.372;2023-05-10T03:49:42;6.20;;;3.50;;
12896;SDS011;6516;35.028;32.372;2023-05-10T03:52:09;7.88;;;3.67;;
12896;SDS011;6516;35.028;32.372;2023-05-10T03:54:39;6.47;;;3.67;;
12896;SDS011;6516;35.028;32.372;2023-05-10T03:57:06;6.37;;;3.60;;
12896;SDS011;6516;35.028;32.372;2023-05-10T03:59:34;7.07;;;3.50;;
12896;SDS011;6516;35.028;32.372;2023-05-10T04:02:02;8.98;;;4.10;;
12896;SDS011;6516;35.028;32.372;2023-05-10T04:04:30;6.80;;;3.47;;
12896;SDS011;6516;35.028;32.372;2023-05-10T04:06:57;6.43;;;3.53;;
12896;SDS011;6516;35.028;32.372;2023-05-10T04:09:25;5.83;;;3.60;;
12896;SDS011;6516;35.028;32.372;2023-05-10T04:11:54;6.15;;;3.30;;
12896;SDS011;6516;35.028;32.372;2023-05-10T04:14:22;6.15;;;2.90;;
12896;SDS011;6516;35.028;32.372;2023-05-10T04:16:50;5.72;;;3.47;;
12896;SDS011;6516;35.028;32.372;2023-05-10T04:19:18;5.63;;;3.17;;
12896;SDS011;6516;35.028;32.372;2023-05-10T04:21:45;4.47;;;2.47;;
12896;SDS011;6516;35.028;32.372;2023-05-10T04:24:13;6.18;;;2.30;;
12896;SDS011;6516;35.028;32.372;2023-05-10T04:26:41;6.75;;;2.42;;
12896;SDS011;6516;35.028;32.372;2023-05-10T04:29:10;6.80;;;2.30;;
12896;SDS011;6516;35.028;32.372;2023-05-10T04:31:38;5.55;;;2.20;;
12896;SDS011;6516;35.028;32.372;2023-05-10T04:34:06;4.57;;;2.10;;
12896;SDS011;6516;35.028;32.372;2023-05-10T04:36:33;6.45;;;2.40;;
12896;SDS011;6516;35.028;32.372;2023-05-10T04:39:02;6.43;;;2.20;;
12896;SDS011;6516;35.028;32.372;2023-05-10T04:41:30;5.13;;;2.17;;
12896;SDS011;6516;35.028;32.372;2023-05-10T04:43:58;5.30;;;2.40;;
12896;SDS011;6516;35.028;32.372;2023-05-10T04:46:27;5.70;;;2.13;;
12896;SDS011;6516;35.028;32.372;2023-05-10T04:48:55;4.85;;;2.00;;
12896;SDS011;6516;35.028;32.372;2023-05-10T04:51:22;6.68;;;2.05;;
12896;SDS011;6516;35.028;32.372;2023-05-10T04:53:50;6.05;;;2.38;;
12896;SDS011;6516;35.028;32.372;2023-05-10T04:56:18;11.48;;;2.50;;
12896;SDS011;6516;35.028;32.372;2023-05-10T04:58:47;5.93;;;2.40;;
12896;SDS011;6516;35.028;32.372;2023-05-10T05:01:15;5.05;;;2.25;;
12896;SDS011;6516;35.028;32.372;2023-05-10T05:03:44;7.57;;;2.33;;
12896;SDS011;6516;35.028;32.372;2023-05-10T05:06:12;5.35;;;2.33;;
12896;SDS011;6516;35.028;32.372;2023-05-10T05:08:39;4.70;;;2.17;;
12896;SDS011;6516;35.028;32.372;2023-05-10T05:11:07;6.73;;;2.27;;
12896;SDS011;6516;35.028;32.372;2023-05-10T05:13:35;8.55;;;2.50;;
12896;SDS011;6516;35.028;32.372;2023-05-10T05:16:04;4.95;;;2.40;;
12896;SDS011;6516;35.028;32.372;2023-05-10T05:18:32;5.80;;;2.05;;
12896;SDS011;6516;35.028;32.372;2023-05-10T05:21:02;4.97;;;2.05;;
12896;SDS011;6516;35.028;32.372;2023-05-10T05:23:30;5.13;;;2.27;;
12896;SDS011;6516;35.028;32.372;2023-05-10T05:25:57;6.20;;;2.50;;
12896;SDS011;6516;35.028;32.372;2023-05-10T05:28:25;7.25;;;2.83;;
12896;SDS011;6516;35.028;32.372;2023-05-10T05:30:58;7.30;;;3.08;;
12896;SDS011;6516;35.028;32.372;2023-05-10T05:33:25;6.35;;;3.00;;
12896;SDS011;6516;35.028;32.372;2023-05-10T05:35:56;5.63;;;2.90;;
12896;SDS011;6516;35.028;32.372;2023-05-10T05:38:25;5.68;;;2.55;;
12896;SDS011;6516;35.028;32.372;2023-05-10T05:40:53;6.03;;;2.50;;
12896;SDS011;6516;35.028;32.372;2023-05-10T05:43:21;5.55;;;2.08;;
12896;SDS011;6516;35.028;32.372;2023-05-10T05:45:49;6.40;;;2.20;;
12896;SDS011;6516;35.028;32.372;2023-05-10T05:48:19;6.60;;;2.10;;
12896;SDS011;6516;35.028;32.372;2023-05-10T05:50:47;9.85;;;2.60;;
12896;SDS011;6516;35.028;32.372;2023-05-10T05:53:15;5.35;;;2.22;;
12896;SDS011;6516;35.028;32.372;2023-05-10T05:55:52;6.20;;;2.17;;
12896;SDS011;6516;35.028;32.372;2023-05-10T05:58:20;6.78;;;2.30;;
12896;SDS011;6516;35.028;32.372;2023-05-10T06:00:49;5.00;;;2.20;;
12896;SDS011;6516;35.028;32.372;2023-05-10T06:03:17;6.97;;;2.30;;
12896;SDS011;6516;35.028;32.372;2023-05-10T06:05:45;5.65;;;2.40;;
12896;SDS011;6516;35.028;32.372;2023-05-10T06:08:13;5.57;;;2.40;;
12896;SDS011;6516;35.028;32.372;2023-05-10T06:10:41;5.05;;;2.28;;
12896;SDS011;6516;35.028;32.372;2023-05-10T06:13:11;5.50;;;2.10;;
12896;SDS011;6516;35.028;32.372;2023-05-10T06:15:38;5.97;;;2.53;;
12896;SDS011;6516;35.028;32.372;2023-05-10T06:18:06;5.68;;;2.78;;
12896;SDS011;6516;35.028;32.372;2023-05-10T06:20:34;6.18;;;2.80;;
12896;SDS011;6516;35.028;32.372;2023-05-10T06:23:02;7.53;;;3.10;;
12896;SDS011;6516;35.028;32.372;2023-05-10T06:25:29;7.03;;;3.03;;
12896;SDS011;6516;35.028;32.372;2023-05-10T06:27:57;6.78;;;3.38;;
12896;SDS011;6516;35.028;32.372;2023-05-10T06:30:26;7.10;;;3.30;;
12896;SDS011;6516;35.028;32.372;2023-05-10T06:32:54;7.85;;;3.85;;
12896;SDS011;6516;35.028;32.372;2023-05-10T06:35:22;5.97;;;3.35;;
12896;SDS011;6516;35.028;32.372;2023-05-10T06:37:49;6.03;;;3.47;;
12896;SDS011;6516;35.028;32.372;2023-05-10T06:40:17;8.18;;;3.85;;
12896;SDS011;6516;35.028;32.372;2023-05-10T06:42:46;6.78;;;3.92;;
12896;SDS011;6516;35.028;32.372;2023-05-10T06:45:13;5.93;;;3.75;;
12896;SDS011;6516;35.028;32.372;2023-05-10T06:47:43;6.53;;;3.85;;
12896;SDS011;6516;35.028;32.372;2023-05-10T06:50:11;6.77;;;3.40;;
12896;SDS011;6516;35.028;32.372;2023-05-10T06:52:38;9.02;;;3.90;;
12896;SDS011;6516;35.028;32.372;2023-05-10T06:55:09;9.02;;;3.90;;
12896;SDS011;6516;35.028;32.372;2023-05-10T06:57:37;7.68;;;4.10;;
12896;SDS011;6516;35.028;32.372;2023-05-10T07:00:06;6.43;;;3.53;;
12896;SDS011;6516;35.028;32.372;2023-05-10T07:02:35;8.40;;;3.47;;
12896;SDS011;6516;35.028;32.372;2023-05-10T07:05:05;5.88;;;3.20;;
12896;SDS011;6516;35.028;32.372;2023-05-10T07:07:33;9.70;;;3.90;;
12896;SDS011;6516;35.028;32.372;2023-05-10T07:10:01;8.70;;;4.30;;
12896;SDS011;6516;35.028;32.372;2023-05-10T07:12:29;7.43;;;3.67;;
12896;SDS011;6516;35.028;32.372;2023-05-10T07:14:57;9.07;;;4.27;;
12896;SDS011;6516;35.028;32.372;2023-05-10T07:17:25;10.30;;;4.30;;
12896;SDS011;6516;35.028;32.372;2023-05-10T07:19:52;9.20;;;4.07;;
12896;SDS011;6516;35.028;32.372;2023-05-10T07:22:22;9.25;;;4.50;;
12896;SDS011;6516;35.028;32.372;2023-05-10T07:24:50;8.20;;;4.28;;
12896;SDS011;6516;35.028;32.372;2023-05-10T07:27:17;10.23;;;5.10;;
12896;SDS011;6516;35.028;32.372;2023-05-10T07:29:45;8.00;;;4.47;;
12896;SDS011;6516;35.028;32.372;2023-05-10T07:32:13;9.57;;;4.85;;
12896;SDS011;6516;35.028;32.372;2023-05-10T07:34:41;9.30;;;4.30;;
12896;SDS011;6516;35.028;32.372;2023-05-10T07:37:09;6.57;;;4.30;;
12896;SDS011;6516;35.028;32.372;2023-05-10T07:39:38;11.40;;;5.10;;
12896;SDS011;6516;35.028;32.372;2023-05-10T07:42:06;7.70;;;4.20;;
12896;SDS011;6516;35.028;32.372;2023-05-10T07:44:33;8.05;;;4.85;;
12896;SDS011;6516;35.028;32.372;2023-05-10T07:47:01;7.60;;;4.50;;
12896;SDS011;6516;35.028;32.372;2023-05-10T07:49:29;8.60;;;4.57;;
12896;SDS011;6516;35.028;32.372;2023-05-10T07:51:57;10.40;;;5.37;;
12896;SDS011;6516;35.028;32.372;2023-05-10T07:54:24;8.73;;;5.13;;
12896;SDS011;6516;35.028;32.372;2023-05-10T07:56:54;9.80;;;5.50;;
12896;SDS011;6516;35.028;32.372;2023-05-10T07:59:22;8.10;;;5.25;;
12896;SDS011;6516;35.028;32.372;2023-05-10T08:01:49;21.75;;;6.20;;
12896;SDS011;6516;35.028;32.372;2023-05-10T08:04:17;10.20;;;5.73;;
12896;SDS011;6516;35.028;32.372;2023-05-10T08:06:45;10.23;;;5.50;;
12896;SDS011;6516;35.028;32.372;2023-05-10T08:09:13;11.43;;;5.53;;
12896;SDS011;6516;35.028;32.372;2023-05-10T08:11:40;9.35;;;5.65;;
12896;SDS011;6516;35.028;32.372;2023-05-10T08:14:10;11.52;;;5.50;;
12896;SDS011;6516;35.028;32.372;2023-05-10T08:16:37;10.10;;;5.60;;
12896;SDS011;6516;35.028;32.372;2023-05-10T08:19:05;8.88;;;5.40;;
12896;SDS011;6516;35.028;32.372;2023-05-10T08:21:33;10.77;;;5.85;;
12896;SDS011;6516;35.028;32.372;2023-05-10T08:24:01;9.77;;;5.45;;
12896;SDS011;6516;35.028;32.372;2023-05-10T08:26:28;11.57;;;5.00;;
12896;SDS011;6516;35.028;32.372;2023-05-10T08:28:56;10.57;;;5.13;;
12896;SDS011;6516;35.028;32.372;2023-05-10T08:31:26;11.45;;;4.80;;
12896;SDS011;6516;35.028;32.372;2023-05-10T08:33:53;12.00;;;5.40;;
12896;SDS011;6516;35.028;32.372;2023-05-10T08:36:21;8.80;;;4.80;;
12896;SDS011;6516;35.028;32.372;2023-05-10T08:38:50;8.90;;;4.78;;
12896;SDS011;6516;35.028;32.372;2023-05-10T08:41:18;8.77;;;4.40;;
12896;SDS011;6516;35.028;32.372;2023-05-10T08:43:47;10.55;;;5.38;;
12896;SDS011;6516;35.028;32.372;2023-05-10T08:46:16;8.18;;;4.00;;
12896;SDS011;6516;35.028;32.372;2023-05-10T08:48:48;7.70;;;4.40;;
12896;SDS011;6516;35.028;32.372;2023-05-10T08:51:17;8.93;;;4.88;;
12896;SDS011;6516;35.028;32.372;2023-05-10T08:53:46;7.83;;;4.07;;
12896;SDS011;6516;35.028;32.372;2023-05-10T08:56:15;10.10;;;4.43;;
12896;SDS011;6516;35.028;32.372;2023-05-10T08:58:43;9.05;;;4.22;;
12896;SDS011;6516;35.028;32.372;2023-05-10T09:01:11;7.90;;;4.20;;
12896;SDS011;6516;35.028;32.372;2023-05-10T09:03:40;8.88;;;4.45;;
12896;SDS011;6516;35.028;32.372;2023-05-10T09:06:10;9.37;;;4.27;;
12896;SDS011;6516;35.028;32.372;2023-05-10T09:08:39;8.35;;;4.07;;
12896;SDS011;6516;35.028;32.372;2023-05-10T09:11:09;9.48;;;4.47;;
12896;SDS011;6516;35.028;32.372;2023-05-10T09:13:38;8.35;;;4.22;;
12896;SDS011;6516;35.028;32.372;2023-05-10T09:16:06;8.75;;;4.28;;
12896;SDS011;6516;35.028;32.372;2023-05-10T09:18:34;8.60;;;4.33;;
12896;SDS011;6516;35.028;32.372;2023-05-10T09:21:02;8.07;;;4.22;;
12896;SDS011;6516;35.028;32.372;2023-05-10T09:23:31;8.88;;;4.03;;
12896;SDS011;6516;35.028;32.372;2023-05-10T09:26:02;11.40;;;4.35;;
12896;SDS011;6516;35.028;32.372;2023-05-10T09:28:31;8.00;;;4.47;;
12896;SDS011;6516;35.028;32.372;2023-05-10T09:31:00;8.47;;;4.30;;
12896;SDS011;6516;35.028;32.372;2023-05-10T09:33:28;9.35;;;4.25;;
12896;SDS011;6516;35.028;32.372;2023-05-10T09:36:06;8.32;;;4.07;;
12896;SDS011;6516;35.028;32.372;2023-05-10T09:38:45;7.30;;;3.97;;
12896;SDS011;6516;35.028;32.372;2023-05-10T09:41:18;8.43;;;3.90;;
12896;SDS011;6516;35.028;32.372;2023-05-10T09:43:47;8.07;;;4.00;;
12896;SDS011;6516;35.028;32.372;2023-05-10T09:46:16;9.63;;;4.40;;
12896;SDS011;6516;35.028;32.372;2023-05-10T09:48:45;10.48;;;4.20;;
12896;SDS011;6516;35.028;32.372;2023-05-10T09:51:20;8.45;;;4.15;;
12896;SDS011;6516;35.028;32.372;2023-05-10T09:53:49;9.95;;;4.30;;
12896;SDS011;6516;35.028;32.372;2023-05-10T09:56:37;8.43;;;3.93;;
12896;SDS011;6516;35.028;32.372;2023-05-10T09:59:05;9.43;;;4.15;;
12896;SDS011;6516;35.028;32.372;2023-05-10T10:01:36;11.68;;;3.90;;
12896;SDS011;6516;35.028;32.372;2023-05-10T10:04:04;7.65;;;4.00;;
12896;SDS011;6516;35.028;32.372;2023-05-10T10:06:36;8.77;;;3.72;;
12896;SDS011;6516;35.028;32.372;2023-05-10T10:09:06;8.93;;;3.87;;
12896;SDS011;6516;35.028;32.372;2023-05-10T10:11:36;9.40;;;3.90;;
12896;SDS011;6516;35.028;32.372;2023-05-10T10:14:06;8.73;;;4.32;;
12896;SDS011;6516;35.028;32.372;2023-05-10T10:16:35;7.95;;;4.30;;
12896;SDS011;6516;35.028;32.372;2023-05-10T10:19:03;9.57;;;3.95;;
12896;SDS011;6516;35.028;32.372;2023-05-10T10:21:31;9.30;;;4.00;;
12896;SDS011;6516;35.028;32.372;2023-05-10T10:23:59;10.98;;;4.15;;
12896;SDS011;6516;35.028;32.372;2023-05-10T10:26:32;10.50;;;4.00;;
12896;SDS011;6516;35.028;32.372;2023-05-10T10:29:07;9.20;;;4.10;;
12896;SDS011;6516;35.028;32.372;2023-05-10T10:31:50;7.70;;;3.80;;
12896;SDS011;6516;35.028;32.372;2023-05-10T10:34:25;9.23;;;4.07;;
12896;SDS011;6516;35.028;32.372;2023-05-10T10:36:54;9.00;;;3.60;;
12896;SDS011;6516;35.028;32.372;2023-05-10T10:39:24;8.55;;;4.05;;
12896;SDS011;6516;35.028;32.372;2023-05-10T10:41:54;13.20;;;4.00;;
12896;SDS011;6516;35.028;32.372;2023-05-10T10:44:23;9.15;;;4.10;;
12896;SDS011;6516;35.028;32.372;2023-05-10T10:47:07;9.60;;;4.20;;
12896;SDS011;6516;35.028;32.372;2023-05-10T10:49:50;9.27;;;3.60;;
12896;SDS011;6516;35.028;32.372;2023-05-10T10:52:30;7.75;;;3.70;;
12896;SDS011;6516;35.028;32.372;2023-05-10T10:55:03;9.40;;;3.88;;
12896;SDS011;6516;35.028;32.372;2023-05-10T10:57:42;9.63;;;3.65;;
12896;SDS011;6516;35.028;32.372;2023-05-10T11:00:23;7.97;;;4.07;;
12896;SDS011;6516;35.028;32.372;2023-05-10T11:02:54;8.63;;;3.83;;
12896;SDS011;6516;35.028;32.372;2023-05-10T11:05:35;8.93;;;3.95;;
12896;SDS011;6516;35.028;32.372;2023-05-10T11:08:09;8.60;;;3.85;;
12896;SDS011;6516;35.028;32.372;2023-05-10T11:10:50;8.20;;;3.88;;
12896;SDS011;6516;35.028;32.372;2023-05-10T11:13:31;11.17;;;3.70;;
12896;SDS011;6516;35.028;32.372;2023-05-10T11:16:09;7.28;;;3.35;;
12896;SDS011;6516;35.028;32.372;2023-05-10T11:18:52;11.10;;;3.88;;
12896;SDS011;6516;35.028;32.372;2023-05-10T11:21:23;9.63;;;3.90;;
12896;SDS011;6516;35.028;32.372;2023-05-10T11:23:52;9.55;;;3.50;;
12896;SDS011;6516;35.028;32.372;2023-05-10T11:26:22;7.77;;;3.57;;
12896;SDS011;6516;35.028;32.372;2023-05-10T11:28:53;7.82;;;3.67;;
12896;SDS011;6516;35.028;32.372;2023-05-10T11:31:22;9.50;;;3.47;;
12896;SDS011;6516;35.028;32.372;2023-05-10T11:33:52;7.88;;;3.58;;
12896;SDS011;6516;35.028;32.372;2023-05-10T11:36:22;8.32;;;3.70;;
12896;SDS011;6516;35.028;32.372;2023-05-10T11:38:52;9.70;;;3.77;;
12896;SDS011;6516;35.028;32.372;2023-05-10T11:41:22;17.10;;;4.18;;
12896;SDS011;6516;35.028;32.372;2023-05-10T11:43:53;12.25;;;4.25;;
12896;SDS011;6516;35.028;32.372;2023-05-10T11:46:23;10.65;;;3.53;;
12896;SDS011;6516;35.028;32.372;2023-05-10T11:48:54;9.77;;;3.58;;
12896;SDS011;6516;35.028;32.372;2023-05-10T11:51:26;8.97;;;3.53;;
12896;SDS011;6516;35.028;32.372;2023-05-10T11:53:54;6.88;;;3.40;;
12896;SDS011;6516;35.028;32.372;2023-05-10T11:56:24;8.90;;;3.50;;
12896;SDS011;6516;35.028;32.372;2023-05-10T11:58:54;10.13;;;3.67;;
12896;SDS011;6516;35.028;32.372;2023-05-10T12:01:25;6.57;;;3.10;;
12896;SDS011;6516;35.028;32.372;2023-05-10T12:03:54;6.63;;;3.30;;
12896;SDS011;6516;35.028;32.372;2023-05-10T12:06:26;6.32;;;3.13;;
12896;SDS011;6516;35.028;32.372;2023-05-10T12:08:56;8.43;;;3.35;;
12896;SDS011;6516;35.028;32.372;2023-05-10T12:11:25;7.63;;;3.53;;
12896;SDS011;6516;35.028;32.372;2023-05-10T12:13:56;9.35;;;4.15;;
12896;SDS011;6516;35.028;32.372;2023-05-10T12:16:25;6.87;;;3.50;;
12896;SDS011;6516;35.028;32.372;2023-05-10T12:18:56;6.22;;;3.33;;
12896;SDS011;6516;35.028;32.372;2023-05-10T12:21:25;7.70;;;3.53;;
12896;SDS011;6516;35.028;32.372;2023-05-10T12:23:58;6.97;;;3.30;;
12896;SDS011;6516;35.028;32.372;2023-05-10T12:26:28;8.65;;;3.22;;
12896;SDS011;6516;35.028;32.372;2023-05-10T12:31:50;6.60;;;3.42;;
12896;SDS011;6516;35.028;32.372;2023-05-10T12:34:23;9.67;;;3.67;;
12896;SDS011;6516;35.028;32.372;2023-05-10T12:36:56;7.97;;;3.50;;
12896;SDS011;6516;35.028;32.372;2023-05-10T12:39:25;6.82;;;3.60;;
12896;SDS011;6516;35.028;32.372;2023-05-10T12:41:53;11.15;;;3.58;;
12896;SDS011;6516;35.028;32.372;2023-05-10T12:44:20;7.07;;;3.40;;
12896;SDS011;6516;35.028;32.372;2023-05-10T12:46:48;7.97;;;3.50;;
12896;SDS011;6516;35.028;32.372;2023-05-10T12:49:17;8.05;;;3.40;;
12896;SDS011;6516;35.028;32.372;2023-05-10T12:51:45;9.20;;;4.13;;
12896;SDS011;6516;35.028;32.372;2023-05-10T12:54:13;6.95;;;3.28;;
12896;SDS011;6516;35.028;32.372;2023-05-10T12:56:41;7.43;;;3.35;;
12896;SDS011;6516;35.028;32.372;2023-05-10T12:59:09;10.13;;;3.27;;
12896;SDS011;6516;35.028;32.372;2023-05-10T13:01:37;6.82;;;3.20;;
12896;SDS011;6516;35.028;32.372;2023-05-10T13:04:06;8.82;;;3.90;;
12896;SDS011;6516;35.028;32.372;2023-05-10T13:06:34;8.13;;;3.47;;
12896;SDS011;6516;35.028;32.372;2023-05-10T13:09:02;8.38;;;3.67;;
12896;SDS011;6516;35.028;32.372;2023-05-10T13:11:30;9.03;;;3.57;;
12896;SDS011;6516;35.028;32.372;2023-05-10T13:13:57;7.20;;;3.50;;
12896;SDS011;6516;35.028;32.372;2023-05-10T13:16:26;7.78;;;3.38;;
12896;SDS011;6516;35.028;32.372;2023-05-10T13:18:53;8.95;;;3.70;;
12896;SDS011;6516;35.028;32.372;2023-05-10T13:21:23;9.48;;;3.92;;
12896;SDS011;6516;35.028;32.372;2023-05-10T13:23:51;9.40;;;3.80;;
12896;SDS011;6516;35.028;32.372;2023-05-10T13:26:19;8.73;;;3.85;;
12896;SDS011;6516;35.028;32.372;2023-05-10T13:28:47;7.60;;;3.90;;
12896;SDS011;6516;35.028;32.372;2023-05-10T13:31:16;7.68;;;3.72;;
12896;SDS011;6516;35.028;32.372;2023-05-10T13:33:44;7.10;;;3.78;;
12896;SDS011;6516;35.028;32.372;2023-05-10T13:36:12;8.30;;;3.80;;
12896;SDS011;6516;35.028;32.372;2023-05-10T13:38:41;6.47;;;3.80;;
12896;SDS011;6516;35.028;32.372;2023-05-10T13:41:09;9.18;;;4.10;;
12896;SDS011;6516;35.028;32.372;2023-05-10T13:43:37;6.80;;;3.40;;
12896;SDS011;6516;35.028;32.372;2023-05-10T13:46:05;7.60;;;3.83;;
12896;SDS011;6516;35.028;32.372;2023-05-10T13:48:33;10.30;;;4.27;;
12896;SDS011;6516;35.028;32.372;2023-05-10T13:51:02;7.65;;;3.58;;
12896;SDS011;6516;35.028;32.372;2023-05-10T13:53:30;7.13;;;3.78;;
12896;SDS011;6516;35.028;32.372;2023-05-10T13:55:59;6.75;;;3.45;;
12896;SDS011;6516;35.028;32.372;2023-05-10T13:58:29;9.68;;;3.80;;
12896;SDS011;6516;35.028;32.372;2023-05-10T14:00:57;8.80;;;3.70;;
12896;SDS011;6516;35.028;32.372;2023-05-10T14:03:25;9.48;;;3.72;;
12896;SDS011;6516;35.028;32.372;2023-05-10T14:05:52;7.55;;;3.70;;
12896;SDS011;6516;35.028;32.372;2023-05-10T14:08:20;8.35;;;3.70;;
12896;SDS011;6516;35.028;32.372;2023-05-10T14:10:48;7.10;;;3.80;;
12896;SDS011;6516;35.028;32.372;2023-05-10T14:13:18;7.27;;;3.70;;
12896;SDS011;6516;35.028;32.372;2023-05-10T14:15:46;9.00;;;4.03;;
12896;SDS011;6516;35.028;32.372;2023-05-10T14:18:14;6.25;;;3.80;;
12896;SDS011;6516;35.028;32.372;2023-05-10T14:20:42;8.10;;;3.80;;
12896;SDS011;6516;35.028;32.372;2023-05-10T14:23:10;8.55;;;4.10;;
12896;SDS011;6516;35.028;32.372;2023-05-10T14:25:38;8.13;;;3.80;;
12896;SDS011;6516;35.028;32.372;2023-05-10T14:28:06;8.30;;;3.72;;
12896;SDS011;6516;35.028;32.372;2023-05-10T14:30:36;7.65;;;3.80;;
12896;SDS011;6516;35.028;32.372;2023-05-10T14:33:04;6.78;;;4.00;;
12896;SDS011;6516;35.028;32.372;2023-05-10T14:35:33;7.55;;;3.83;;
12896;SDS011;6516;35.028;32.372;2023-05-10T14:38:01;7.50;;;3.80;;
12896;SDS011;6516;35.028;32.372;2023-05-10T14:40:29;10.13;;;4.10;;
12896;SDS011;6516;35.028;32.372;2023-05-10T14:42:57;7.43;;;3.88;;
12896;SDS011;6516;35.028;32.372;2023-05-10T14:45:25;8.30;;;4.03;;
12896;SDS011;6516;35.028;32.372;2023-05-10T14:47:54;9.45;;;4.60;;
12896;SDS011;6516;35.028;32.372;2023-05-10T14:50:22;8.83;;;4.20;;
12896;SDS011;6516;35.028;32.372;2023-05-10T14:52:51;7.45;;;4.40;;
12896;SDS011;6516;35.028;32.372;2023-05-10T14:55:19;7.18;;;4.07;;
12896;SDS011;6516;35.028;32.372;2023-05-10T14:57:47;9.45;;;3.88;;
12896;SDS011;6516;35.028;32.372;2023-05-10T15:00:15;9.90;;;4.13;;
12896;SDS011;6516;35.028;32.372;2023-05-10T15:02:44;6.90;;;4.00;;
12896;SDS011;6516;35.028;32.372;2023-05-10T15:05:14;7.90;;;3.85;;
12896;SDS011;6516;35.028;32.372;2023-05-10T15:07:42;8.00;;;3.92;;
12896;SDS011;6516;35.028;32.372;2023-05-10T15:10:10;7.53;;;3.80;;